Time;durP1;ratioP1;P1;durP2;ratioP2;P2;SDS_P1;SDS_P2;PMS_P1;PMS_P2;Temp;Humidity;BMP_temperature;BMP_pressure;BME280_temperature;BME280_humidity;BME280_pressure;Samples;Min_cycle;Max_cycle;Signal;HPM_P1;HPM_P2
2023/11/15 00:02:06;;;;;;;1.90;1.65;;;;;;;13.53;74.85;100870.00;5099637;28;20107;-79
2023/11/15 00:04:32;;;;;;;0.10;0.10;;;;;;;13.43;75.26;100872.97;5103091;28;20066;-79
2023/11/15 00:06:58;;;;;;;0.10;0.10;;;;;;;13.37;74.97;100870.50;5107484;28;20034;-80
2023/11/15 00:09:25;;;;;;;0.10;0.10;;;;;;;13.41;75.03;100877.47;5106781;28;20039;-78
2023/11/15 00:11:51;;;;;;;0.10;0.10;;;;;;;13.46;74.68;100873.78;5103414;28;20020;-79
2023/11/15 00:14:17;;;;;;;0.10;0.10;;;;;;;13.55;74.69;100868.16;5102630;28;20126;-78
2023/11/15 00:16:43;;;;;;;0.30;0.30;;;;;;;13.59;74.42;100870.69;5104619;28;20020;-79
2023/11/15 00:19:10;;;;;;;1.00;1.00;;;;;;;13.59;74.26;100857.38;5103073;28;20460;-79
2023/11/15 00:21:36;;;;;;;0.63;0.63;;;;;;;13.62;74.24;100858.19;5103249;28;20032;-79
2023/11/15 00:24:03;;;;;;;0.10;0.10;;;;;;;13.65;74.23;100860.75;5108767;28;20020;-79
2023/11/15 00:26:29;;;;;;;0.20;0.20;;;;;;;13.62;74.13;100864.41;5098737;28;20024;-78
2023/11/15 00:28:55;;;;;;;0.13;0.13;;;;;;;13.56;74.37;100870.78;5099683;28;20024;-79
2023/11/15 00:31:22;;;;;;;0.10;0.10;;;;;;;13.62;73.99;100880.38;5100939;28;20032;-79
2023/11/15 00:33:48;;;;;;;0.30;0.30;;;;;;;13.60;74.06;100882.19;5100706;28;20104;-79
2023/11/15 00:36:19;;;;;;;0.20;0.20;;;;;;;13.64;73.95;100883.84;5099768;28;20548;-79
2023/11/15 00:38:46;;;;;;;0.10;0.10;;;;;;;13.53;74.27;100902.84;5105402;28;20087;-79
2023/11/15 00:41:13;;;;;;;0.13;0.13;;;;;;;13.57;73.95;100900.91;5102885;28;20070;-77
2023/11/15 00:43:39;;;;;;;0.10;0.10;;;;;;;13.66;73.76;100903.31;5099354;28;20045;-78
2023/11/15 00:46:06;;;;;;;0.17;0.17;;;;;;;13.65;73.73;100916.69;5099992;28;20028;-78
2023/11/15 00:48:32;;;;;;;1.05;1.05;;;;;;;13.62;73.77;100922.06;5106745;28;20111;-79
2023/11/15 00:50:58;;;;;;;0.10;0.10;;;;;;;13.61;73.65;100930.97;5104381;28;20055;-78
2023/11/15 00:53:24;;;;;;;1.33;1.33;;;;;;;13.62;73.09;100922.97;5105496;28;20027;-79
2023/11/15 00:55:50;;;;;;;0.55;0.55;;;;;;;13.65;72.57;100922.00;5104530;28;20019;-77
2023/11/15 00:58:17;;;;;;;0.10;0.10;;;;;;;13.58;72.51;100926.63;5099887;28;20061;-78
2023/11/15 01:00:47;;;;;;;0.10;0.10;;;;;;;13.58;72.77;100926.63;5108459;28;20028;-78
2023/11/15 01:03:25;;;;;;;0.65;0.65;;;;;;;13.41;72.57;100920.03;5110675;28;20043;-78
2023/11/15 01:05:55;;;;;;;0.20;0.20;;;;;;;13.49;72.20;100927.78;5102669;28;20032;-78
2023/11/15 01:08:23;;;;;;;0.30;0.30;;;;;;;13.41;71.88;100935.16;5103330;28;20039;-79
2023/11/15 01:10:51;;;;;;;0.20;0.20;;;;;;;13.25;71.90;100940.88;5101762;28;20363;-78
2023/11/15 01:13:17;;;;;;;0.57;0.45;;;;;;;13.34;71.99;100936.22;5103506;28;20074;-79
2023/11/15 01:15:43;;;;;;;0.25;0.25;;;;;;;13.32;71.94;100936.28;5102736;28;20052;-78
2023/11/15 01:18:09;;;;;;;0.10;0.10;;;;;;;13.42;72.11;100942.19;5102450;28;20402;-78
2023/11/15 01:20:36;;;;;;;0.30;0.30;;;;;;;13.31;72.23;100945.16;5107158;28;20027;-78
2023/11/15 01:23:05;;;;;;;0.10;0.10;;;;;;;13.33;72.08;100947.78;5110271;28;20047;-79
2023/11/15 01:25:32;;;;;;;0.10;0.10;;;;;;;13.35;72.25;100956.59;5104597;28;20054;-79
2023/11/15 01:27:59;;;;;;;0.35;0.35;;;;;;;13.21;72.66;100955.19;5108450;28;20028;-79
2023/11/15 01:30:26;;;;;;;0.93;0.93;;;;;;;13.31;71.98;100957.56;5109314;28;20309;-80
2023/11/15 01:32:52;;;;;;;0.10;0.10;;;;;;;13.31;72.16;100961.13;5106092;28;20051;-77
2023/11/15 01:35:19;;;;;;;0.13;0.13;;;;;;;13.21;72.53;100965.84;5108555;28;20031;-79
2023/11/15 01:37:50;;;;;;;0.75;0.32;;;;;;;13.24;72.53;100976.38;5104466;28;20091;-78
2023/11/15 01:40:19;;;;;;;0.15;0.15;;;;;;;13.19;72.18;100978.31;5102962;28;20036;-79
2023/11/15 01:42:46;;;;;;;0.10;0.10;;;;;;;13.30;72.13;100980.66;5110400;28;20043;-78
2023/11/15 01:45:13;;;;;;;0.10;0.10;;;;;;;13.37;72.22;100984.00;5105763;28;20023;-79
2023/11/15 01:47:40;;;;;;;0.20;0.20;;;;;;;13.39;72.08;100977.75;5099973;28;20024;-78
2023/11/15 01:50:10;;;;;;;0.10;0.10;;;;;;;13.32;71.97;100985.94;5111698;28;20023;-78
2023/11/15 01:52:38;;;;;;;0.10;0.10;;;;;;;13.40;72.09;100987.50;5107420;28;20101;-78
2023/11/15 01:55:07;;;;;;;0.13;0.13;;;;;;;13.48;71.93;100994.38;5104664;28;20027;-78
2023/11/15 01:57:35;;;;;;;0.20;0.20;;;;;;;13.32;72.08;101000.13;5106979;28;20065;-78
2023/11/15 02:00:06;;;;;;;0.20;0.20;;;;;;;13.33;72.10;100998.34;5103873;28;20085;-78
2023/11/15 02:02:32;;;;;;;0.20;0.20;;;;;;;13.50;71.50;101003.19;5107802;28;20023;-78
2023/11/15 02:05:00;;;;;;;0.10;0.10;;;;;;;13.39;71.73;101012.34;5106649;28;20131;-79
2023/11/15 02:07:26;;;;;;;0.20;0.20;;;;;;;13.32;71.83;101012.53;5099974;28;20038;-77
2023/11/15 02:09:52;;;;;;;0.10;0.10;;;;;;;13.44;71.32;101014.88;5104638;28;20428;-78
2023/11/15 02:12:19;;;;;;;0.10;0.10;;;;;;;13.50;71.71;101024.50;5101683;28;20123;-79
2023/11/15 02:14:45;;;;;;;0.10;0.10;;;;;;;13.45;71.57;101021.97;5106287;28;20119;-79
2023/11/15 02:17:13;;;;;;;0.20;0.20;;;;;;;13.43;71.86;101027.34;5099963;28;20024;-79
2023/11/15 02:19:39;;;;;;;0.10;0.10;;;;;;;13.53;72.02;101030.59;5104626;28;20394;-78
2023/11/15 02:22:05;;;;;;;0.15;0.15;;;;;;;13.46;72.47;101028.16;5100887;28;20138;-78
2023/11/15 02:24:32;;;;;;;0.10;0.10;;;;;;;13.42;72.69;101038.00;5113463;28;20046;-78
2023/11/15 02:26:59;;;;;;;0.10;0.10;;;;;;;13.41;72.93;101034.47;5096616;28;20046;-79
2023/11/15 02:29:25;;;;;;;0.10;0.10;;;;;;;13.35;72.90;101039.09;5100894;28;20020;-78
2023/11/15 02:31:51;;;;;;;3.13;1.75;;;;;;;13.38;73.16;101039.03;5101781;28;20032;-77
2023/11/15 02:34:18;;;;;;;0.10;0.10;;;;;;;13.26;73.73;101046.41;5095537;28;20028;-77
2023/11/15 02:36:44;;;;;;;0.10;0.10;;;;;;;13.20;74.05;101053.69;5109728;28;20379;-77
2023/11/15 02:39:10;;;;;;;0.10;0.10;;;;;;;13.23;73.78;101043.84;5097194;28;20531;-78
2023/11/15 02:41:37;;;;;;;0.10;0.10;;;;;;;13.22;73.75;101051.84;5104330;28;20513;-78
2023/11/15 02:44:04;;;;;;;0.13;0.13;;;;;;;13.06;74.87;101064.69;5097757;28;20039;-78
2023/11/15 02:46:30;;;;;;;0.57;0.57;;;;;;;13.21;74.22;101061.63;5102794;28;20076;-78
2023/11/15 02:48:56;;;;;;;0.20;0.20;;;;;;;13.19;73.78;101059.94;5104041;28;20091;-78
2023/11/15 02:51:22;;;;;;;0.10;0.10;;;;;;;13.15;73.82;101051.16;5097962;28;20083;-78
2023/11/15 02:53:49;;;;;;;0.20;0.20;;;;;;;13.24;73.50;101061.53;5107018;28;20051;-78
2023/11/15 02:56:15;;;;;;;1.65;0.70;;;;;;;13.09;73.71;101060.16;5102066;28;20050;-79
2023/11/15 02:58:41;;;;;;;0.10;0.10;;;;;;;13.15;73.48;101059.13;5108666;28;20028;-78
2023/11/15 03:01:07;;;;;;;0.68;0.68;;;;;;;13.13;73.37;101062.75;5109065;28;20032;-78
2023/11/15 03:03:35;;;;;;;0.10;0.10;;;;;;;13.04;72.90;101063.88;5104646;28;20036;-79
2023/11/15 03:06:03;;;;;;;0.10;0.10;;;;;;;13.14;72.97;101060.03;5103557;28;20036;-78
2023/11/15 03:08:30;;;;;;;0.10;0.10;;;;;;;13.11;72.81;101063.66;5099037;28;20124;-78
2023/11/15 03:10:57;;;;;;;0.93;0.93;;;;;;;13.14;72.27;101057.38;5099844;28;20027;-78
2023/11/15 03:13:24;;;;;;;0.68;0.68;;;;;;;13.14;72.62;101053.88;5102700;28;20039;-78
2023/11/15 03:15:50;;;;;;;0.40;0.40;;;;;;;13.18;72.62;101061.69;5100669;28;20024;-78
2023/11/15 03:18:17;;;;;;;0.10;0.10;;;;;;;13.08;72.58;101061.09;5095892;28;20032;-79
2023/11/15 03:20:44;;;;;;;0.20;0.20;;;;;;;13.18;72.82;101064.34;5099418;28;20027;-78
2023/11/15 03:23:10;;;;;;;0.10;0.10;;;;;;;13.09;72.68;101083.25;5104842;28;20024;-79
2023/11/15 03:25:37;;;;;;;0.10;0.10;;;;;;;13.26;72.51;101075.66;5104059;28;20102;-78
2023/11/15 03:28:05;;;;;;;1.52;1.45;;;;;;;13.27;72.34;101076.53;5104167;28;20052;-78
2023/11/15 03:30:31;;;;;;;0.10;0.10;;;;;;;13.25;72.05;101083.69;5110931;28;20051;-79
2023/11/15 03:32:58;;;;;;;8.05;0.85;;;;;;;13.29;72.29;101084.50;5103983;28;20020;-79
2023/11/15 03:35:24;;;;;;;0.10;0.10;;;;;;;13.35;72.33;101090.50;5096831;28;20024;-78
2023/11/15 03:37:52;;;;;;;0.30;0.30;;;;;;;13.26;72.75;101091.63;5100260;28;20051;-79
2023/11/15 03:40:20;;;;;;;2.00;0.55;;;;;;;13.22;72.31;101087.31;5103703;28;20106;-78
2023/11/15 03:42:46;;;;;;;0.10;0.10;;;;;;;13.37;72.38;101087.81;5100078;28;20031;-79
2023/11/15 03:45:13;;;;;;;0.15;0.15;;;;;;;13.36;72.07;101078.97;5105092;28;20808;-79
2023/11/15 03:47:40;;;;;;;0.13;0.13;;;;;;;13.30;72.47;101095.09;5104554;28;20027;-79
2023/11/15 03:50:07;;;;;;;0.13;0.13;;;;;;;13.27;72.36;101093.38;5107968;28;20028;-78
2023/11/15 03:52:33;;;;;;;0.20;0.20;;;;;;;13.40;72.27;101093.09;5104773;28;20027;-79
2023/11/15 03:54:59;;;;;;;0.57;0.57;;;;;;;13.42;71.99;101094.78;5102718;28;20033;-79
2023/11/15 03:57:26;;;;;;;0.10;0.10;;;;;;;13.45;72.03;101092.97;5103928;28;20094;-79
2023/11/15 03:59:54;;;;;;;0.10;0.10;;;;;;;13.40;72.18;101098.41;5095188;28;20474;-80
2023/11/15 04:02:20;;;;;;;0.10;0.10;;;;;;;13.32;72.52;101100.38;5097180;28;20075;-78
2023/11/15 04:04:46;;;;;;;0.80;0.80;;;;;;;13.43;71.99;101103.63;5105547;28;20035;-79
2023/11/15 04:07:12;;;;;;;0.10;0.10;;;;;;;13.39;71.95;101107.31;5096091;28;20080;-78
2023/11/15 04:09:39;;;;;;;0.10;0.10;;;;;;;13.42;71.87;101102.78;5097535;28;20032;-79
2023/11/15 04:12:05;;;;;;;0.40;0.40;;;;;;;13.40;72.36;101103.72;5105935;28;20088;-80
2023/11/15 04:14:33;;;;;;;0.10;0.10;;;;;;;13.45;72.06;101123.09;5100681;28;20047;-80
2023/11/15 04:17:00;;;;;;;0.20;0.20;;;;;;;13.52;71.94;101118.47;5102458;28;20024;-78
2023/11/15 04:19:26;;;;;;;0.30;0.30;;;;;;;13.43;72.15;101119.59;5098522;28;20024;-78
2023/11/15 04:21:52;;;;;;;0.10;0.10;;;;;;;13.45;72.33;101128.44;5104993;28;20028;-79
2023/11/15 04:24:18;;;;;;;0.22;0.22;;;;;;;13.46;72.10;101135.50;5102971;28;20035;-79
2023/11/15 04:26:45;;;;;;;0.10;0.10;;;;;;;13.40;72.35;101133.00;5105611;28;20028;-78
2023/11/15 04:29:12;;;;;;;0.15;0.15;;;;;;;13.52;71.91;101130.00;5101700;28;20063;-79
2023/11/15 04:31:38;;;;;;;0.10;0.10;;;;;;;13.53;72.07;101131.75;5104171;28;20028;-78
2023/11/15 04:34:05;;;;;;;0.40;0.40;;;;;;;13.52;71.98;101135.34;5101372;28;20044;-79
2023/11/15 04:36:33;;;;;;;0.10;0.10;;;;;;;13.45;72.07;101135.56;5102103;28;20024;-78
2023/11/15 04:38:59;;;;;;;0.22;0.22;;;;;;;13.57;71.64;101138.75;5100294;28;20051;-79
2023/11/15 04:41:25;;;;;;;0.20;0.20;;;;;;;13.49;71.23;101146.06;5100942;28;20046;-79
2023/11/15 04:43:52;;;;;;;0.10;0.10;;;;;;;13.59;71.42;101147.56;5097979;28;20032;-79
2023/11/15 04:46:18;;;;;;;0.10;0.10;;;;;;;13.62;71.66;101156.38;5102246;28;20035;-79
2023/11/15 04:48:44;;;;;;;0.30;0.30;;;;;;;13.58;71.35;101166.22;5101209;28;20027;-79
2023/11/15 04:51:10;;;;;;;0.10;0.10;;;;;;;13.68;71.35;101158.84;5106703;28;20054;-79
2023/11/15 04:53:37;;;;;;;0.20;0.20;;;;;;;13.65;71.42;101161.63;5105544;28;20379;-78
2023/11/15 04:56:03;;;;;;;0.10;0.10;;;;;;;13.61;71.26;101160.84;5101050;28;20490;-78
2023/11/15 04:58:31;;;;;;;0.10;0.10;;;;;;;13.65;71.18;101169.63;5105833;28;20040;-79
2023/11/15 05:00:57;;;;;;;0.10;0.10;;;;;;;13.57;71.14;101177.78;5103310;28;20112;-79
2023/11/15 05:03:23;;;;;;;0.10;0.10;;;;;;;13.53;71.25;101174.34;5107444;28;20031;-80
2023/11/15 05:05:49;;;;;;;1.55;1.40;;;;;;;13.58;71.01;101171.53;5105694;28;20110;-79
2023/11/15 05:08:15;;;;;;;0.10;0.10;;;;;;;13.47;71.24;101174.53;5103321;28;20024;-79
2023/11/15 05:10:41;;;;;;;1.05;1.05;;;;;;;13.43;71.21;101175.50;5100323;28;20019;-80
2023/11/15 05:13:08;;;;;;;0.20;0.20;;;;;;;13.51;70.99;101185.97;5109308;28;20051;-79
2023/11/15 05:15:34;;;;;;;0.10;0.10;;;;;;;13.36;71.90;101187.22;5102518;28;20028;-78
2023/11/15 05:18:00;;;;;;;0.20;0.20;;;;;;;13.19;72.39;101191.16;5098027;28;20036;-80
2023/11/15 05:20:27;;;;;;;0.10;0.10;;;;;;;13.22;72.61;101191.09;5102160;28;20019;-78
2023/11/15 05:22:56;;;;;;;0.20;0.20;;;;;;;13.29;72.33;101190.94;5108874;28;20073;-79
2023/11/15 05:25:23;;;;;;;0.10;0.10;;;;;;;13.30;72.38;101193.56;5103821;28;20032;-78
2023/11/15 05:27:49;;;;;;;0.10;0.10;;;;;;;13.19;72.62;101193.81;5102645;28;20718;-78
2023/11/15 05:30:16;;;;;;;0.20;0.20;;;;;;;13.21;72.97;101197.31;5101992;28;20028;-78
2023/11/15 05:32:43;;;;;;;0.55;0.55;;;;;;;13.11;72.88;101209.13;5100230;28;20100;-79
2023/11/15 05:35:10;;;;;;;0.10;0.10;;;;;;;12.94;73.25;101197.09;5100895;28;20028;-79
2023/11/15 05:37:38;;;;;;;0.10;0.10;;;;;;;13.06;73.05;101195.03;5102585;28;20077;-78
2023/11/15 05:40:06;;;;;;;0.20;0.20;;;;;;;13.02;73.08;101194.25;5110920;28;20026;-79
2023/11/15 05:42:32;;;;;;;0.10;0.10;;;;;;;12.96;72.66;101199.72;5104044;28;20028;-79
2023/11/15 05:44:58;;;;;;;0.10;0.10;;;;;;;12.92;73.05;101193.59;5103041;28;20035;-79
2023/11/15 05:47:25;;;;;;;0.20;0.20;;;;;;;12.96;73.04;101194.41;5106362;28;20035;-79
2023/11/15 05:49:52;;;;;;;0.10;0.10;;;;;;;13.01;72.63;101199.59;5105649;28;20024;-79
2023/11/15 05:52:18;;;;;;;0.10;0.10;;;;;;;12.96;72.88;101205.06;5110197;28;20019;-79
2023/11/15 05:54:46;;;;;;;0.10;0.10;;;;;;;12.94;73.00;101207.72;5103858;28;20073;-78
2023/11/15 05:57:14;;;;;;;0.10;0.10;;;;;;;13.03;72.98;101205.75;5110021;28;20019;-77
2023/11/15 05:59:40;;;;;;;0.10;0.10;;;;;;;12.98;73.23;101207.66;5101900;28;20032;-78
2023/11/15 06:02:06;;;;;;;0.10;0.10;;;;;;;12.99;73.12;101206.75;5110521;28;20032;-76
2023/11/15 06:04:33;;;;;;;0.10;0.10;;;;;;;12.95;73.27;101205.94;5115732;28;20128;-78
2023/11/15 06:06:59;;;;;;;0.13;0.13;;;;;;;12.92;73.38;101209.56;5110006;28;20024;-80
2023/11/15 06:09:27;;;;;;;0.10;0.10;;;;;;;12.78;74.19;101211.66;5107874;28;20027;-80
2023/11/15 06:11:53;;;;;;;0.10;0.10;;;;;;;12.76;74.28;101210.81;5108850;28;20421;-80
2023/11/15 06:14:20;;;;;;;2.08;1.98;;;;;;;12.77;74.09;101217.88;5103079;28;20032;-79
2023/11/15 06:16:46;;;;;;;0.80;0.80;;;;;;;12.73;74.09;101218.88;5105616;28;20548;-78
2023/11/15 06:19:12;;;;;;;0.10;0.10;;;;;;;12.62;74.08;101212.03;5112811;28;20069;-79
2023/11/15 06:21:43;;;;;;;0.10;0.10;;;;;;;12.61;74.22;101220.91;5104270;28;20047;-78
2023/11/15 06:24:10;;;;;;;0.20;0.20;;;;;;;12.56;73.81;101220.13;5108531;28;20031;-79
2023/11/15 06:26:37;;;;;;;0.10;0.10;;;;;;;12.56;74.11;101227.22;5108254;28;20659;-79
2023/11/15 06:29:05;;;;;;;0.10;0.10;;;;;;;12.49;74.15;101225.63;5106604;28;20030;-79
2023/11/15 06:31:32;;;;;;;0.20;0.20;;;;;;;12.50;74.14;101227.34;5106790;28;20020;-78
2023/11/15 06:33:58;;;;;;;0.10;0.10;;;;;;;12.49;74.04;101226.50;5109078;28;20035;-79
2023/11/15 06:36:25;;;;;;;0.10;0.10;;;;;;;12.45;74.13;101224.81;5103350;28;20054;-79
2023/11/15 06:38:51;;;;;;;0.10;0.10;;;;;;;12.53;73.55;101235.28;5106270;28;20402;-80
2023/11/15 06:41:17;;;;;;;0.10;0.10;;;;;;;12.53;73.53;101230.81;5105231;28;20036;-78
2023/11/15 06:43:43;;;;;;;0.45;0.45;;;;;;;12.55;73.68;101241.44;5105149;28;20082;-78
2023/11/15 06:46:15;;;;;;;0.10;0.10;;;;;;;12.52;73.72;101239.69;5107600;28;20024;-78
2023/11/15 06:48:42;;;;;;;0.20;0.20;;;;;;;12.49;73.95;101250.41;5108632;28;20026;-77
2023/11/15 06:51:08;;;;;;;0.20;0.20;;;;;;;12.55;73.49;101252.06;5102823;28;20019;-79
2023/11/15 06:53:35;;;;;;;0.20;0.20;;;;;;;12.60;73.58;101259.03;5108447;28;20019;-79
2023/11/15 06:56:01;;;;;;;0.17;0.17;;;;;;;12.61;73.71;101263.44;5101771;28;20032;-77
2023/11/15 06:58:27;;;;;;;0.10;0.10;;;;;;;12.57;73.85;101264.41;5102855;28;20032;-78
2023/11/15 07:00:54;;;;;;;0.30;0.30;;;;;;;12.60;73.83;101266.13;5097657;28;20035;-76
2023/11/15 07:03:22;;;;;;;1.30;1.30;;;;;;;12.61;73.86;101263.44;5099881;28;20032;-77
2023/11/15 07:05:48;;;;;;;0.30;0.30;;;;;;;12.64;73.63;101277.59;5105713;28;20019;-79
2023/11/15 07:08:16;;;;;;;0.10;0.10;;;;;;;12.56;74.03;101285.69;5101534;28;20024;-77
2023/11/15 07:10:42;;;;;;;0.20;0.20;;;;;;;12.52;74.26;101290.19;5100145;28;20028;-75
2023/11/15 07:13:09;;;;;;;0.20;0.20;;;;;;;12.59;73.83;101291.81;5104478;28;20024;-78
2023/11/15 07:15:35;;;;;;;0.10;0.10;;;;;;;12.59;73.91;101294.47;5101457;28;20036;-77
2023/11/15 07:18:02;;;;;;;0.10;0.10;;;;;;;12.43;74.20;101293.06;5096664;28;20095;-79
2023/11/15 07:20:28;;;;;;;2.53;2.33;;;;;;;12.52;73.79;101292.84;5099784;28;20028;-79
2023/11/15 07:22:54;;;;;;;0.10;0.10;;;;;;;12.58;74.11;101300.69;5107414;28;20024;-78
2023/11/15 07:25:20;;;;;;;0.10;0.10;;;;;;;12.67;73.47;101304.94;5103103;28;20499;-78
2023/11/15 07:27:46;;;;;;;0.10;0.10;;;;;;;12.69;73.67;101304.94;5101575;28;20024;-78
2023/11/15 07:30:14;;;;;;;0.15;0.15;;;;;;;12.62;73.58;101306.84;5099705;28;20049;-79
2023/11/15 07:32:40;;;;;;;0.10;0.10;;;;;;;12.51;73.77;101304.41;5101717;28;20556;-79
2023/11/15 07:35:08;;;;;;;0.10;0.10;;;;;;;12.68;73.36;101306.69;5109886;28;20436;-78
2023/11/15 07:37:35;;;;;;;0.10;0.10;;;;;;;12.60;73.39;101309.53;5103822;28;20542;-79
2023/11/15 07:40:02;;;;;;;0.10;0.10;;;;;;;12.64;73.71;101304.16;5108564;28;20513;-80
2023/11/15 07:42:29;;;;;;;0.57;0.57;;;;;;;12.73;73.71;101311.94;5095377;28;20127;-79
2023/11/15 07:44:56;;;;;;;0.20;0.20;;;;;;;12.71;73.83;101317.28;5101310;28;20032;-80
2023/11/15 07:47:22;;;;;;;0.10;0.10;;;;;;;12.76;73.35;101322.47;5101011;28;20028;-79
2023/11/15 07:49:48;;;;;;;0.10;0.10;;;;;;;12.72;73.68;101323.47;5103551;28;20020;-78
2023/11/15 07:52:14;;;;;;;2.92;0.63;;;;;;;12.73;73.50;101333.19;5105288;28;20027;-80
2023/11/15 07:54:40;;;;;;;0.10;0.10;;;;;;;12.62;73.29;101333.41;5101534;28;20053;-80
2023/11/15 07:57:07;;;;;;;0.20;0.20;;;;;;;12.72;73.37;101331.44;5099989;28;20106;-81
2023/11/15 07:59:34;;;;;;;5.57;1.65;;;;;;;12.73;73.48;101341.19;5099860;28;20446;-79
2023/11/15 08:02:01;;;;;;;0.20;0.20;;;;;;;12.74;73.37;101348.25;5104024;28;20039;-80
2023/11/15 08:04:27;;;;;;;0.10;0.10;;;;;;;12.79;73.12;101349.88;5101252;28;20035;-82
2023/11/15 08:06:53;;;;;;;0.13;0.13;;;;;;;12.79;73.25;101347.22;5102766;28;20056;-81
2023/11/15 08:09:32;;;;;;;0.10;0.10;;;;;;;12.87;73.16;101349.75;5098884;28;20040;-81
2023/11/15 08:11:59;;;;;;;0.10;0.10;;;;;;;12.94;73.03;101351.34;5100997;28;20031;-81
2023/11/15 08:14:25;;;;;;;0.30;0.30;;;;;;;12.90;72.84;101351.47;5100018;28;20107;-82
2023/11/15 08:16:52;;;;;;;0.10;0.10;;;;;;;12.94;72.82;101351.34;5097781;28;20023;-82
2023/11/15 08:19:18;;;;;;;0.28;0.28;;;;;;;13.02;72.66;101348.53;5102621;28;20437;-82
2023/11/15 08:21:44;;;;;;;0.13;0.13;;;;;;;13.10;72.81;101359.00;5109042;28;20545;-81
2023/11/15 08:24:13;;;;;;;0.73;0.73;;;;;;;13.20;72.85;101362.34;5107436;28;20456;-80
2023/11/15 08:26:42;;;;;;;0.10;0.10;;;;;;;13.34;73.10;101360.22;5107347;28;20086;-82
2023/11/15 08:29:08;;;;;;;0.10;0.10;;;;;;;13.28;72.73;101360.34;5110726;28;20428;-82
2023/11/15 08:31:35;;;;;;;0.17;0.17;;;;;;;13.38;72.50;101369.03;5107351;28;20027;-80
2023/11/15 08:34:01;;;;;;;0.10;0.10;;;;;;;13.46;72.34;101372.41;5108795;28;20118;-80
2023/11/15 08:36:27;;;;;;;0.40;0.40;;;;;;;13.40;72.34;101370.75;5104195;28;20039;-81
2023/11/15 08:38:54;;;;;;;0.10;0.10;;;;;;;13.51;72.19;101369.66;5102135;28;20407;-78
2023/11/15 08:41:20;;;;;;;0.10;0.10;;;;;;;13.51;72.11;101373.16;5109358;28;20038;-77
2023/11/15 08:43:46;;;;;;;0.10;0.10;;;;;;;13.34;71.59;101377.97;5105751;28;20032;-78
2023/11/15 08:46:16;;;;;;;1.00;1.00;;;;;;;13.45;71.54;101373.31;5106841;28;20055;-80
2023/11/15 08:48:43;;;;;;;0.10;0.10;;;;;;;13.44;71.21;101376.88;5099096;28;20024;-80
2023/11/15 08:51:10;;;;;;;0.10;0.10;;;;;;;13.41;71.36;101377.84;5104794;28;20107;-79
2023/11/15 08:53:39;;;;;;;0.20;0.20;;;;;;;13.36;71.39;101381.50;5108307;28;20032;-80
2023/11/15 08:56:13;;;;;;;0.10;0.10;;;;;;;13.36;71.82;101386.81;5104564;28;20040;-80
2023/11/15 08:58:39;;;;;;;0.15;0.15;;;;;;;13.43;71.11;101386.66;5106444;28;20020;-81
2023/11/15 09:01:09;;;;;;;0.10;0.10;;;;;;;13.47;71.10;101382.16;5104811;28;20069;-81
2023/11/15 09:03:35;;;;;;;0.22;0.22;;;;;;;13.52;70.54;101377.59;5110384;28;20115;-80
2023/11/15 09:06:01;;;;;;;0.10;0.10;;;;;;;13.59;70.80;101389.84;5108503;28;20031;-80
2023/11/15 09:08:27;;;;;;;0.20;0.20;;;;;;;13.64;70.72;101386.19;5104039;28;20028;-81
2023/11/15 09:10:55;;;;;;;0.30;0.30;;;;;;;13.70;70.12;101386.03;5109085;28;20146;-82
2023/11/15 09:13:22;;;;;;;0.10;0.10;;;;;;;13.74;70.27;101385.94;5108837;28;20562;-81
2023/11/15 09:15:50;;;;;;;0.10;0.10;;;;;;;13.82;70.13;101388.41;5105862;28;20024;-82
2023/11/15 09:18:21;;;;;;;0.10;0.10;;;;;;;13.89;69.86;101394.44;5107972;28;20023;-81
2023/11/15 09:20:49;;;;;;;0.10;0.10;;;;;;;14.05;69.51;101395.81;5103744;28;20028;-80
2023/11/15 09:23:16;;;;;;;0.10;0.10;;;;;;;14.01;69.49;101403.94;5107675;28;20106;-80
2023/11/15 09:25:43;;;;;;;7.82;3.63;;;;;;;14.13;69.07;101405.38;5099716;28;20035;-81
2023/11/15 09:28:14;;;;;;;3.03;1.20;;;;;;;14.08;68.56;101418.81;5104963;28;20032;-80
2023/11/15 09:30:43;;;;;;;0.10;0.10;;;;;;;14.10;69.03;101400.16;5110606;28;20175;-81
2023/11/15 09:33:09;;;;;;;0.10;0.10;;;;;;;14.06;68.68;101405.53;5109989;28;20410;-79
2023/11/15 09:35:37;;;;;;;0.10;0.10;;;;;;;14.23;68.89;101405.13;5110118;28;20035;-80
2023/11/15 09:38:03;;;;;;;0.10;0.10;;;;;;;14.05;68.29;101394.94;5103826;28;20617;-81
2023/11/15 09:40:30;;;;;;;0.20;0.20;;;;;;;14.06;68.76;101412.69;5108924;28;20038;-79
2023/11/15 09:43:00;;;;;;;11.32;4.43;;;;;;;14.11;67.55;101405.44;5103195;28;20026;-80
2023/11/15 09:45:26;;;;;;;0.90;0.90;;;;;;;14.19;67.66;101405.22;5100968;28;20505;-81
2023/11/15 09:47:54;;;;;;;0.10;0.10;;;;;;;14.19;67.76;101406.13;5108976;28;20028;-81
2023/11/15 09:50:33;;;;;;;0.10;0.10;;;;;;;14.27;67.57;101402.34;5105925;28;20024;-81
2023/11/15 09:53:05;;;;;;;0.10;0.10;;;;;;;14.09;67.42;101409.91;5110823;28;20036;-80
2023/11/15 09:55:33;;;;;;;0.75;0.75;;;;;;;14.30;67.61;101403.16;5103054;28;20520;-81
2023/11/15 09:58:00;;;;;;;0.10;0.10;;;;;;;14.37;67.24;101406.56;5104576;28;20401;-80
2023/11/15 10:00:30;;;;;;;0.38;0.38;;;;;;;14.35;67.31;101403.03;5100071;28;20479;-80
2023/11/15 10:02:56;;;;;;;0.10;0.10;;;;;;;14.51;67.37;101399.03;5107229;28;20499;-80
2023/11/15 10:05:28;;;;;;;0.10;0.10;;;;;;;14.60;67.05;101403.25;5108637;28;20036;-81
2023/11/15 10:10:47;;;;;;;0.28;0.28;;;;;;;14.80;66.38;101410.69;5068415;28;20428;-80
2023/11/15 10:13:17;;;;;;;0.10;0.10;;;;;;;14.78;65.99;101415.22;5064414;28;20082;-81
2023/11/15 10:15:46;;;;;;;0.10;0.10;;;;;;;14.96;65.79;101411.13;5061983;28;20025;-81
2023/11/15 10:18:15;;;;;;;0.10;0.10;;;;;;;14.95;65.62;101419.19;5049143;28;20147;-80
2023/11/15 10:20:43;;;;;;;0.15;0.15;;;;;;;15.01;64.95;101427.03;5056123;28;20026;-80
2023/11/15 10:23:12;;;;;;;0.10;0.10;;;;;;;15.06;65.49;101411.75;5062177;28;20447;-81
2023/11/15 10:25:47;;;;;;;0.10;0.10;;;;;;;15.08;64.51;101414.34;5059931;28;20039;-80
2023/11/15 10:28:15;;;;;;;0.10;0.10;;;;;;;15.08;64.76;101415.25;5045246;28;20017;-80
2023/11/15 10:30:41;;;;;;;0.30;0.30;;;;;;;14.92;64.03;101414.81;5055678;28;20044;-80
2023/11/15 10:33:11;;;;;;;0.10;0.10;;;;;;;14.90;64.04;101421.13;5055995;28;20024;-81
2023/11/15 10:35:38;;;;;;;0.38;0.38;;;;;;;14.72;63.48;101429.59;5055972;28;20037;-80
2023/11/15 10:38:14;;;;;;;0.20;0.20;;;;;;;14.76;64.00;101425.06;5050476;28;20029;-80
2023/11/15 10:40:41;;;;;;;0.35;0.35;;;;;;;14.66;63.73;101431.56;5049088;28;20048;-80
2023/11/15 10:43:11;;;;;;;0.20;0.20;;;;;;;14.59;64.07;101416.63;5054677;28;20024;-80
2023/11/15 10:45:43;;;;;;;0.45;0.45;;;;;;;14.45;64.22;101425.88;5056388;28;20492;-80
2023/11/15 10:48:12;;;;;;;0.15;0.15;;;;;;;14.49;64.79;101426.66;5050876;28;20029;-80
2023/11/15 10:50:44;;;;;;;0.10;0.10;;;;;;;14.43;65.24;101429.50;5055607;28;20025;-79
2023/11/15 10:53:11;;;;;;;0.10;0.10;;;;;;;14.33;65.51;101426.19;5060002;28;20498;-79
2023/11/15 10:55:39;;;;;;;0.10;0.10;;;;;;;14.20;65.74;101420.31;5056729;28;20114;-79
2023/11/15 10:58:08;;;;;;;0.10;0.10;;;;;;;13.98;66.27;101430.63;5058501;28;20508;-80
2023/11/15 11:00:38;;;;;;;0.63;0.63;;;;;;;13.93;66.73;101435.22;5060148;28;20028;-79
2023/11/15 11:03:06;;;;;;;0.10;0.10;;;;;;;13.96;66.49;101424.50;5057971;28;20033;-79
2023/11/15 11:05:59;;;;;;;0.10;0.10;;;;;;;13.83;65.92;101442.53;5052858;28;20033;-80
2023/11/15 11:13:45;;;;;;;0.20;0.20;;;;;;;13.61;65.89;101439.50;5103415;27;1210402;-79
2023/11/15 11:19:21;;;;;;;0.10;0.10;;;;;;;13.70;65.02;101426.84;5090889;27;20389;-78
2023/11/15 11:22:08;;;;;;;3.72;2.95;;;;;;;13.80;65.17;101438.16;5088027;28;20525;-77
2023/11/15 11:33:05;;;;;;;0.20;0.20;;;;;;;13.82;65.41;101428.38;5152479;27;20337;-79
2023/11/15 11:35:34;;;;;;;;;;;;;;;13.95;64.98;101436.06;5142528;27;20400;-79
2023/11/15 11:38:01;;;;;;;0.10;0.10;;;;;;;13.96;65.06;101437.81;5137846;27;20155;-80
2023/11/15 11:40:31;;;;;;;0.10;0.10;;;;;;;13.96;65.59;101441.34;5131493;27;20427;-80
2023/11/15 11:43:19;;;;;;;0.10;0.10;;;;;;;14.01;64.90;101442.09;5132540;27;20027;-80
2023/11/15 11:45:47;;;;;;;1.75;1.65;;;;;;;14.02;64.81;101432.34;5132688;27;20055;-79